sensor_id;sensor_type;location;lat;lon;timestamp;P1;durP1;ratioP1;P2;durP2;ratioP2
7887;SDS011;3989;48.810;9.208;2023-08-20T00:01:26;9.73;;;9.00;;
7887;SDS011;3989;48.810;9.208;2023-08-20T00:03:54;11.13;;;10.07;;
7887;SDS011;3989;48.810;9.208;2023-08-20T00:06:21;9.45;;;8.80;;
7887;SDS011;3989;48.810;9.208;2023-08-20T00:08:48;10.35;;;9.35;;
7887;SDS011;3989;48.810;9.208;2023-08-20T00:11:15;10.65;;;9.65;;
7887;SDS011;3989;48.810;9.208;2023-08-20T00:13:42;10.27;;;9.35;;
7887;SDS011;3989;48.810;9.208;2023-08-20T00:16:11;10.27;;;9.45;;
7887;SDS011;3989;48.810;9.208;2023-08-20T00:18:38;10.38;;;9.35;;
7887;SDS011;3989;48.810;9.208;2023-08-20T00:21:05;9.77;;;9.07;;
7887;SDS011;3989;48.810;9.208;2023-08-20T00:23:33;9.90;;;8.90;;
7887;SDS011;3989;48.810;9.208;2023-08-20T00:26:00;10.95;;;10.05;;
7887;SDS011;3989;48.810;9.208;2023-08-20T00:28:27;10.23;;;9.32;;
7887;SDS011;3989;48.810;9.208;2023-08-20T00:30:53;9.60;;;8.90;;
7887;SDS011;3989;48.810;9.208;2023-08-20T00:33:22;11.05;;;10.00;;
7887;SDS011;3989;48.810;9.208;2023-08-20T00:35:48;10.13;;;9.23;;
7887;SDS011;3989;48.810;9.208;2023-08-20T00:38:15;10.50;;;9.45;;
7887;SDS011;3989;48.810;9.208;2023-08-20T00:40:41;10.60;;;9.60;;
7887;SDS011;3989;48.810;9.208;2023-08-20T00:43:08;9.82;;;9.02;;
7887;SDS011;3989;48.810;9.208;2023-08-20T00:45:35;10.57;;;9.60;;
7887;SDS011;3989;48.810;9.208;2023-08-20T00:48:03;10.00;;;9.00;;
7887;SDS011;3989;48.810;9.208;2023-08-20T00:50:32;10.95;;;9.95;;
7887;SDS011;3989;48.810;9.208;2023-08-20T00:52:59;10.02;;;9.23;;
7887;SDS011;3989;48.810;9.208;2023-08-20T00:55:27;9.75;;;9.05;;
7887;SDS011;3989;48.810;9.208;2023-08-20T00:57:54;9.98;;;9.02;;
7887;SDS011;3989;48.810;9.208;2023-08-20T01:00:20;9.80;;;9.00;;
7887;SDS011;3989;48.810;9.208;2023-08-20T01:02:49;10.38;;;9.68;;
7887;SDS011;3989;48.810;9.208;2023-08-20T01:05:16;10.68;;;9.80;;
7887;SDS011;3989;48.810;9.208;2023-08-20T01:08:13;12.10;;;10.57;;
7887;SDS011;3989;48.810;9.208;2023-08-20T01:10:52;10.75;;;10.00;;
7887;SDS011;3989;48.810;9.208;2023-08-20T01:13:23;10.35;;;9.45;;
7887;SDS011;3989;48.810;9.208;2023-08-20T01:15:50;10.27;;;9.35;;
7887;SDS011;3989;48.810;9.208;2023-08-20T01:18:17;10.85;;;9.73;;
7887;SDS011;3989;48.810;9.208;2023-08-20T01:20:45;10.50;;;9.55;;
7887;SDS011;3989;48.810;9.208;2023-08-20T01:29:28;11.52;;;10.45;;
7887;SDS011;3989;48.810;9.208;2023-08-20T01:31:55;11.93;;;10.88;;
7887;SDS011;3989;48.810;9.208;2023-08-20T01:34:22;11.35;;;10.43;;
7887;SDS011;3989;48.810;9.208;2023-08-20T01:36:49;11.05;;;10.05;;
7887;SDS011;3989;48.810;9.208;2023-08-20T01:39:15;11.05;;;10.13;;
7887;SDS011;3989;48.810;9.208;2023-08-20T01:41:43;10.90;;;9.93;;
7887;SDS011;3989;48.810;9.208;2023-08-20T01:44:10;11.63;;;10.38;;
7887;SDS011;3989;48.810;9.208;2023-08-20T01:46:38;10.95;;;10.05;;
7887;SDS011;3989;48.810;9.208;2023-08-20T01:49:05;11.65;;;10.55;;
7887;SDS011;3989;48.810;9.208;2023-08-20T01:51:31;11.77;;;10.88;;
7887;SDS011;3989;48.810;9.208;2023-08-20T01:53:58;12.68;;;10.93;;
7887;SDS011;3989;48.810;9.208;2023-08-20T01:56:25;11.10;;;10.23;;
7887;SDS011;3989;48.810;9.208;2023-08-20T01:58:52;10.82;;;9.80;;
7887;SDS011;3989;48.810;9.208;2023-08-20T02:01:18;12.63;;;11.55;;
7887;SDS011;3989;48.810;9.208;2023-08-20T02:03:46;11.77;;;10.85;;
7887;SDS011;3989;48.810;9.208;2023-08-20T02:06:13;12.38;;;11.43;;
7887;SDS011;3989;48.810;9.208;2023-08-20T02:08:40;11.90;;;10.77;;
7887;SDS011;3989;48.810;9.208;2023-08-20T02:11:06;12.05;;;11.15;;
7887;SDS011;3989;48.810;9.208;2023-08-20T02:13:33;11.77;;;10.93;;
7887;SDS011;3989;48.810;9.208;2023-08-20T02:16:00;12.63;;;11.43;;
7887;SDS011;3989;48.810;9.208;2023-08-20T02:18:27;12.13;;;11.25;;
7887;SDS011;3989;48.810;9.208;2023-08-20T02:20:55;11.88;;;10.93;;
7887;SDS011;3989;48.810;9.208;2023-08-20T02:23:22;12.52;;;11.20;;
7887;SDS011;3989;48.810;9.208;2023-08-20T02:25:49;13.73;;;11.73;;
7887;SDS011;3989;48.810;9.208;2023-08-20T02:28:15;12.27;;;11.18;;
7887;SDS011;3989;48.810;9.208;2023-08-20T02:30:42;12.25;;;11.32;;
7887;SDS011;3989;48.810;9.208;2023-08-20T02:33:09;13.18;;;11.40;;
7887;SDS011;3989;48.810;9.208;2023-08-20T02:35:36;13.23;;;11.93;;
7887;SDS011;3989;48.810;9.208;2023-08-20T02:38:05;14.10;;;12.65;;
7887;SDS011;3989;48.810;9.208;2023-08-20T02:40:31;13.40;;;12.23;;
7887;SDS011;3989;48.810;9.208;2023-08-20T02:42:58;13.15;;;11.95;;
7887;SDS011;3989;48.810;9.208;2023-08-20T02:45:25;13.88;;;12.52;;
7887;SDS011;3989;48.810;9.208;2023-08-20T02:47:51;14.63;;;13.20;;
7887;SDS011;3989;48.810;9.208;2023-08-20T02:50:18;12.98;;;11.60;;
7887;SDS011;3989;48.810;9.208;2023-08-20T02:52:45;13.77;;;12.57;;
7887;SDS011;3989;48.810;9.208;2023-08-20T02:55:13;13.27;;;12.10;;
7887;SDS011;3989;48.810;9.208;2023-08-20T02:57:39;12.55;;;11.63;;
7887;SDS011;3989;48.810;9.208;2023-08-20T03:00:06;13.23;;;11.88;;
7887;SDS011;3989;48.810;9.208;2023-08-20T03:02:36;14.15;;;12.93;;
7887;SDS011;3989;48.810;9.208;2023-08-20T03:05:05;14.70;;;13.45;;
7887;SDS011;3989;48.810;9.208;2023-08-20T03:07:32;13.30;;;11.98;;
7887;SDS011;3989;48.810;9.208;2023-08-20T03:09:59;12.15;;;11.15;;
7887;SDS011;3989;48.810;9.208;2023-08-20T03:12:26;13.77;;;12.52;;
7887;SDS011;3989;48.810;9.208;2023-08-20T03:14:53;13.27;;;12.13;;
7887;SDS011;3989;48.810;9.208;2023-08-20T03:17:20;14.38;;;12.73;;
7887;SDS011;3989;48.810;9.208;2023-08-20T03:19:53;13.32;;;12.13;;
7887;SDS011;3989;48.810;9.208;2023-08-20T03:22:22;12.88;;;11.82;;
7887;SDS011;3989;48.810;9.208;2023-08-20T03:24:49;13.43;;;12.32;;
7887;SDS011;3989;48.810;9.208;2023-08-20T03:27:16;12.60;;;11.70;;
7887;SDS011;3989;48.810;9.208;2023-08-20T03:29:44;13.00;;;11.80;;
7887;SDS011;3989;48.810;9.208;2023-08-20T03:32:11;12.88;;;11.68;;
7887;SDS011;3989;48.810;9.208;2023-08-20T03:34:38;14.45;;;13.05;;
7887;SDS011;3989;48.810;9.208;2023-08-20T03:37:04;13.98;;;12.77;;
7887;SDS011;3989;48.810;9.208;2023-08-20T03:39:31;13.05;;;11.85;;
7887;SDS011;3989;48.810;9.208;2023-08-20T03:41:58;14.27;;;12.25;;
7887;SDS011;3989;48.810;9.208;2023-08-20T03:44:24;13.88;;;12.68;;
7887;SDS011;3989;48.810;9.208;2023-08-20T03:46:52;13.88;;;12.68;;
7887;SDS011;3989;48.810;9.208;2023-08-20T03:49:19;13.57;;;12.48;;
7887;SDS011;3989;48.810;9.208;2023-08-20T03:51:46;13.60;;;12.40;;
7887;SDS011;3989;48.810;9.208;2023-08-20T03:54:12;14.05;;;12.77;;
7887;SDS011;3989;48.810;9.208;2023-08-20T03:56:39;13.85;;;12.73;;
7887;SDS011;3989;48.810;9.208;2023-08-20T03:59:06;13.90;;;12.75;;
7887;SDS011;3989;48.810;9.208;2023-08-20T04:01:32;14.43;;;13.13;;
7887;SDS011;3989;48.810;9.208;2023-08-20T04:04:02;14.18;;;12.70;;
7887;SDS011;3989;48.810;9.208;2023-08-20T04:06:29;13.40;;;12.18;;
7887;SDS011;3989;48.810;9.208;2023-08-20T04:08:56;13.77;;;12.57;;
7887;SDS011;3989;48.810;9.208;2023-08-20T04:11:23;12.70;;;11.60;;
7887;SDS011;3989;48.810;9.208;2023-08-20T04:13:49;13.18;;;11.77;;
7887;SDS011;3989;48.810;9.208;2023-08-20T04:16:16;12.57;;;11.55;;
7887;SDS011;3989;48.810;9.208;2023-08-20T04:18:43;13.43;;;12.32;;
7887;SDS011;3989;48.810;9.208;2023-08-20T04:21:12;14.20;;;12.90;;
7887;SDS011;3989;48.810;9.208;2023-08-20T04:23:39;13.10;;;12.00;;
7887;SDS011;3989;48.810;9.208;2023-08-20T04:26:06;12.80;;;11.60;;
7887;SDS011;3989;48.810;9.208;2023-08-20T04:28:33;13.38;;;12.10;;
7887;SDS011;3989;48.810;9.208;2023-08-20T04:31:00;13.80;;;12.43;;
7887;SDS011;3989;48.810;9.208;2023-08-20T04:33:26;13.95;;;12.60;;
7887;SDS011;3989;48.810;9.208;2023-08-20T04:35:53;13.35;;;12.15;;
7887;SDS011;3989;48.810;9.208;2023-08-20T04:38:21;13.85;;;12.75;;
7887;SDS011;3989;48.810;9.208;2023-08-20T04:40:48;14.20;;;12.43;;
7887;SDS011;3989;48.810;9.208;2023-08-20T04:43:15;14.15;;;12.68;;
7887;SDS011;3989;48.810;9.208;2023-08-20T04:45:42;13.93;;;12.77;;
7887;SDS011;3989;48.810;9.208;2023-08-20T04:48:08;12.93;;;11.77;;
7887;SDS011;3989;48.810;9.208;2023-08-20T04:50:35;12.30;;;11.30;;
7887;SDS011;3989;48.810;9.208;2023-08-20T04:53:02;13.88;;;12.57;;
7887;SDS011;3989;48.810;9.208;2023-08-20T04:55:30;13.52;;;12.30;;
7887;SDS011;3989;48.810;9.208;2023-08-20T04:57:57;13.35;;;12.25;;
7887;SDS011;3989;48.810;9.208;2023-08-20T05:00:23;13.80;;;12.70;;
7887;SDS011;3989;48.810;9.208;2023-08-20T05:02:50;13.43;;;12.23;;
7887;SDS011;3989;48.810;9.208;2023-08-20T05:05:17;12.82;;;11.70;;
7887;SDS011;3989;48.810;9.208;2023-08-20T05:07:43;12.38;;;11.25;;
7887;SDS011;3989;48.810;9.208;2023-08-20T05:10:10;13.63;;;12.52;;
7887;SDS011;3989;48.810;9.208;2023-08-20T05:12:38;13.13;;;11.80;;
7887;SDS011;3989;48.810;9.208;2023-08-20T05:15:05;16.75;;;11.75;;
7887;SDS011;3989;48.810;9.208;2023-08-20T05:17:32;11.57;;;10.65;;
7887;SDS011;3989;48.810;9.208;2023-08-20T05:19:59;12.50;;;11.23;;
7887;SDS011;3989;48.810;9.208;2023-08-20T05:22:26;12.20;;;11.20;;
7887;SDS011;3989;48.810;9.208;2023-08-20T05:24:52;12.10;;;11.00;;
7887;SDS011;3989;48.810;9.208;2023-08-20T05:27:19;11.10;;;10.20;;
7887;SDS011;3989;48.810;9.208;2023-08-20T05:29:47;11.57;;;10.50;;
7887;SDS011;3989;48.810;9.208;2023-08-20T05:32:14;11.90;;;10.90;;
7887;SDS011;3989;48.810;9.208;2023-08-20T05:34:41;11.38;;;10.27;;
7887;SDS011;3989;48.810;9.208;2023-08-20T05:37:08;16.25;;;11.07;;
7887;SDS011;3989;48.810;9.208;2023-08-20T05:39:36;11.02;;;10.07;;
7887;SDS011;3989;48.810;9.208;2023-08-20T05:42:07;12.00;;;10.82;;
7887;SDS011;3989;48.810;9.208;2023-08-20T05:44:34;11.77;;;10.57;;
7887;SDS011;3989;48.810;9.208;2023-08-20T05:47:02;11.10;;;10.27;;
7887;SDS011;3989;48.810;9.208;2023-08-20T05:49:30;11.27;;;10.20;;
7887;SDS011;3989;48.810;9.208;2023-08-20T05:51:57;12.07;;;10.90;;
7887;SDS011;3989;48.810;9.208;2023-08-20T05:54:23;11.98;;;11.05;;
7887;SDS011;3989;48.810;9.208;2023-08-20T05:56:50;11.23;;;10.23;;
7887;SDS011;3989;48.810;9.208;2023-08-20T05:59:17;11.73;;;10.50;;
7887;SDS011;3989;48.810;9.208;2023-08-20T06:01:43;10.77;;;9.82;;
7887;SDS011;3989;48.810;9.208;2023-08-20T06:04:11;10.70;;;9.88;;
7887;SDS011;3989;48.810;9.208;2023-08-20T06:06:38;11.02;;;9.90;;
7887;SDS011;3989;48.810;9.208;2023-08-20T06:09:06;10.90;;;10.00;;
7887;SDS011;3989;48.810;9.208;2023-08-20T06:11:33;10.50;;;9.70;;
7887;SDS011;3989;48.810;9.208;2023-08-20T06:13:59;13.30;;;9.82;;
7887;SDS011;3989;48.810;9.208;2023-08-20T06:16:26;10.15;;;9.25;;
7887;SDS011;3989;48.810;9.208;2023-08-20T06:18:52;10.75;;;9.75;;
7887;SDS011;3989;48.810;9.208;2023-08-20T06:21:20;11.07;;;9.95;;
7887;SDS011;3989;48.810;9.208;2023-08-20T06:23:47;10.55;;;9.65;;
7887;SDS011;3989;48.810;9.208;2023-08-20T06:26:14;10.15;;;9.40;;
7887;SDS011;3989;48.810;9.208;2023-08-20T06:28:41;11.05;;;9.90;;
7887;SDS011;3989;48.810;9.208;2023-08-20T06:31:09;11.18;;;10.18;;
7887;SDS011;3989;48.810;9.208;2023-08-20T06:33:36;9.68;;;9.02;;
7887;SDS011;3989;48.810;9.208;2023-08-20T06:36:03;9.75;;;9.05;;
7887;SDS011;3989;48.810;9.208;2023-08-20T06:38:31;9.30;;;8.65;;
7887;SDS011;3989;48.810;9.208;2023-08-20T06:40:58;9.75;;;8.95;;
7887;SDS011;3989;48.810;9.208;2023-08-20T06:43:25;9.82;;;8.98;;
7887;SDS011;3989;48.810;9.208;2023-08-20T06:45:51;10.00;;;9.10;;
7887;SDS011;3989;48.810;9.208;2023-08-20T06:48:18;9.95;;;8.90;;
7887;SDS011;3989;48.810;9.208;2023-08-20T06:50:47;10.85;;;9.80;;
7887;SDS011;3989;48.810;9.208;2023-08-20T06:53:16;10.95;;;10.02;;
7887;SDS011;3989;48.810;9.208;2023-08-20T06:55:45;9.80;;;9.10;;
7887;SDS011;3989;48.810;9.208;2023-08-20T06:58:13;9.55;;;8.82;;
7887;SDS011;3989;48.810;9.208;2023-08-20T07:00:40;9.55;;;8.85;;
7887;SDS011;3989;48.810;9.208;2023-08-20T07:03:07;10.20;;;9.30;;
7887;SDS011;3989;48.810;9.208;2023-08-20T07:05:34;10.70;;;9.82;;
7887;SDS011;3989;48.810;9.208;2023-08-20T07:08:01;10.55;;;9.48;;
7887;SDS011;3989;48.810;9.208;2023-08-20T07:10:27;10.38;;;9.45;;
7887;SDS011;3989;48.810;9.208;2023-08-20T07:12:55;10.93;;;10.02;;
7887;SDS011;3989;48.810;9.208;2023-08-20T07:15:22;9.95;;;9.23;;
7887;SDS011;3989;48.810;9.208;2023-08-20T07:17:48;10.13;;;9.43;;
7887;SDS011;3989;48.810;9.208;2023-08-20T07:20:15;10.73;;;9.70;;
7887;SDS011;3989;48.810;9.208;2023-08-20T07:22:42;11.15;;;9.70;;
7887;SDS011;3989;48.810;9.208;2023-08-20T07:25:08;10.07;;;9.27;;
7887;SDS011;3989;48.810;9.208;2023-08-20T07:27:35;10.82;;;9.52;;
7887;SDS011;3989;48.810;9.208;2023-08-20T07:30:04;10.05;;;9.15;;
7887;SDS011;3989;48.810;9.208;2023-08-20T07:32:32;9.77;;;8.98;;
7887;SDS011;3989;48.810;9.208;2023-08-20T07:34:58;9.73;;;8.93;;
7887;SDS011;3989;48.810;9.208;2023-08-20T07:37:25;10.43;;;9.60;;
7887;SDS011;3989;48.810;9.208;2023-08-20T07:39:52;9.90;;;9.05;;
7887;SDS011;3989;48.810;9.208;2023-08-20T07:42:18;11.52;;;10.45;;
7887;SDS011;3989;48.810;9.208;2023-08-20T07:44:45;11.55;;;10.63;;
7887;SDS011;3989;48.810;9.208;2023-08-20T07:47:13;10.43;;;9.70;;
7887;SDS011;3989;48.810;9.208;2023-08-20T07:49:40;11.88;;;10.18;;
7887;SDS011;3989;48.810;9.208;2023-08-20T07:52:07;10.80;;;9.70;;
7887;SDS011;3989;48.810;9.208;2023-08-20T07:54:34;12.52;;;9.45;;
7887;SDS011;3989;48.810;9.208;2023-08-20T07:57:00;11.13;;;10.02;;
7887;SDS011;3989;48.810;9.208;2023-08-20T07:59:27;11.65;;;10.45;;
7887;SDS011;3989;48.810;9.208;2023-08-20T08:01:54;10.40;;;9.40;;
7887;SDS011;3989;48.810;9.208;2023-08-20T08:04:22;11.38;;;10.43;;
7887;SDS011;3989;48.810;9.208;2023-08-20T08:06:49;11.90;;;10.65;;
7887;SDS011;3989;48.810;9.208;2023-08-20T08:09:18;10.13;;;9.32;;
7887;SDS011;3989;48.810;9.208;2023-08-20T08:11:46;11.70;;;10.80;;
7887;SDS011;3989;48.810;9.208;2023-08-20T08:14:13;11.93;;;10.77;;
7887;SDS011;3989;48.810;9.208;2023-08-20T08:16:40;12.00;;;10.90;;
7887;SDS011;3989;48.810;9.208;2023-08-20T08:19:07;12.07;;;11.10;;
7887;SDS011;3989;48.810;9.208;2023-08-20T08:21:35;11.75;;;10.80;;
7887;SDS011;3989;48.810;9.208;2023-08-20T08:24:02;11.30;;;10.15;;
7887;SDS011;3989;48.810;9.208;2023-08-20T08:26:28;11.57;;;10.52;;
7887;SDS011;3989;48.810;9.208;2023-08-20T08:28:56;10.57;;;9.75;;
7887;SDS011;3989;48.810;9.208;2023-08-20T08:31:22;10.88;;;9.77;;
7887;SDS011;3989;48.810;9.208;2023-08-20T08:33:49;11.73;;;10.82;;
7887;SDS011;3989;48.810;9.208;2023-08-20T08:36:16;12.07;;;10.95;;
7887;SDS011;3989;48.810;9.208;2023-08-20T08:38:44;11.57;;;10.60;;
7887;SDS011;3989;48.810;9.208;2023-08-20T08:41:12;11.05;;;10.02;;
7887;SDS011;3989;48.810;9.208;2023-08-20T08:43:39;11.38;;;10.25;;
7887;SDS011;3989;48.810;9.208;2023-08-20T08:46:07;10.80;;;9.68;;
7887;SDS011;3989;48.810;9.208;2023-08-20T08:48:38;10.52;;;9.73;;
7887;SDS011;3989;48.810;9.208;2023-08-20T08:51:07;10.52;;;9.50;;
7887;SDS011;3989;48.810;9.208;2023-08-20T08:53:33;11.05;;;9.90;;
7887;SDS011;3989;48.810;9.208;2023-08-20T08:56:03;9.63;;;8.80;;
7887;SDS011;3989;48.810;9.208;2023-08-20T08:58:31;10.20;;;9.20;;
7887;SDS011;3989;48.810;9.208;2023-08-20T09:00:59;10.63;;;9.80;;
7887;SDS011;3989;48.810;9.208;2023-08-20T09:03:26;11.25;;;10.32;;
7887;SDS011;3989;48.810;9.208;2023-08-20T09:05:54;10.48;;;9.35;;
7887;SDS011;3989;48.810;9.208;2023-08-20T09:08:22;11.00;;;8.98;;
7887;SDS011;3989;48.810;9.208;2023-08-20T09:10:52;9.73;;;8.93;;
7887;SDS011;3989;48.810;9.208;2023-08-20T09:13:23;10.55;;;9.57;;
7887;SDS011;3989;48.810;9.208;2023-08-20T09:15:51;10.82;;;10.02;;
7887;SDS011;3989;48.810;9.208;2023-08-20T09:18:18;11.02;;;10.00;;
7887;SDS011;3989;48.810;9.208;2023-08-20T09:20:45;10.40;;;9.27;;
7887;SDS011;3989;48.810;9.208;2023-08-20T09:23:14;11.07;;;10.20;;
7887;SDS011;3989;48.810;9.208;2023-08-20T09:25:40;10.40;;;9.40;;
7887;SDS011;3989;48.810;9.208;2023-08-20T09:28:08;11.48;;;9.75;;
7887;SDS011;3989;48.810;9.208;2023-08-20T09:30:36;10.80;;;9.82;;
7887;SDS011;3989;48.810;9.208;2023-08-20T09:33:06;10.00;;;9.23;;
7887;SDS011;3989;48.810;9.208;2023-08-20T09:35:34;9.88;;;9.07;;
7887;SDS011;3989;48.810;9.208;2023-08-20T09:38:00;10.07;;;9.13;;
7887;SDS011;3989;48.810;9.208;2023-08-20T09:40:29;10.50;;;9.55;;
7887;SDS011;3989;48.810;9.208;2023-08-20T09:42:56;12.25;;;10.95;;
7887;SDS011;3989;48.810;9.208;2023-08-20T09:45:23;9.90;;;9.02;;
7887;SDS011;3989;48.810;9.208;2023-08-20T09:47:54;10.02;;;9.23;;
7887;SDS011;3989;48.810;9.208;2023-08-20T09:50:22;10.27;;;9.30;;
7887;SDS011;3989;48.810;9.208;2023-08-20T09:52:52;10.43;;;9.68;;
7887;SDS011;3989;48.810;9.208;2023-08-20T09:55:26;10.80;;;9.80;;
7887;SDS011;3989;48.810;9.208;2023-08-20T09:57:56;9.60;;;8.85;;
7887;SDS011;3989;48.810;9.208;2023-08-20T10:00:25;10.48;;;9.68;;
7887;SDS011;3989;48.810;9.208;2023-08-20T10:02:54;10.05;;;9.10;;
7887;SDS011;3989;48.810;9.208;2023-08-20T10:05:21;9.02;;;8.40;;
7887;SDS011;3989;48.810;9.208;2023-08-20T10:07:49;9.10;;;8.27;;
7887;SDS011;3989;48.810;9.208;2023-08-20T10:10:17;8.75;;;8.05;;
7887;SDS011;3989;48.810;9.208;2023-08-20T10:12:44;9.25;;;8.35;;
7887;SDS011;3989;48.810;9.208;2023-08-20T10:15:11;9.30;;;8.50;;
7887;SDS011;3989;48.810;9.208;2023-08-20T10:17:41;9.07;;;8.25;;
7887;SDS011;3989;48.810;9.208;2023-08-20T10:20:12;8.65;;;7.82;;
7887;SDS011;3989;48.810;9.208;2023-08-20T10:22:40;8.65;;;8.05;;
7887;SDS011;3989;48.810;9.208;2023-08-20T10:25:08;8.85;;;8.15;;
7887;SDS011;3989;48.810;9.208;2023-08-20T10:27:36;10.27;;;8.50;;
7887;SDS011;3989;48.810;9.208;2023-08-20T10:30:07;11.63;;;8.80;;
7887;SDS011;3989;48.810;9.208;2023-08-20T10:32:43;10.02;;;8.30;;
7887;SDS011;3989;48.810;9.208;2023-08-20T10:35:12;8.88;;;7.78;;
7887;SDS011;3989;48.810;9.208;2023-08-20T10:37:54;8.50;;;7.85;;
7887;SDS011;3989;48.810;9.208;2023-08-20T10:43:26;8.13;;;7.38;;
7887;SDS011;3989;48.810;9.208;2023-08-20T10:46:05;7.80;;;7.25;;
7887;SDS011;3989;48.810;9.208;2023-08-20T10:48:34;7.18;;;6.65;;
7887;SDS011;3989;48.810;9.208;2023-08-20T10:51:10;7.68;;;7.07;;
7887;SDS011;3989;48.810;9.208;2023-08-20T10:53:39;7.90;;;7.20;;
7887;SDS011;3989;48.810;9.208;2023-08-20T10:56:13;8.25;;;7.45;;
7887;SDS011;3989;48.810;9.208;2023-08-20T10:58:41;7.47;;;6.88;;
7887;SDS011;3989;48.810;9.208;2023-08-20T11:01:13;7.63;;;6.93;;
7887;SDS011;3989;48.810;9.208;2023-08-20T11:03:44;7.45;;;6.85;;
7887;SDS011;3989;48.810;9.208;2023-08-20T11:06:13;7.38;;;6.85;;
7887;SDS011;3989;48.810;9.208;2023-08-20T11:08:40;7.15;;;6.55;;
7887;SDS011;3989;48.810;9.208;2023-08-20T11:11:08;6.80;;;6.40;;
7887;SDS011;3989;48.810;9.208;2023-08-20T11:13:35;6.80;;;6.40;;
7887;SDS011;3989;48.810;9.208;2023-08-20T11:16:02;7.85;;;7.18;;
7887;SDS011;3989;48.810;9.208;2023-08-20T11:18:30;6.75;;;6.20;;
7887;SDS011;3989;48.810;9.208;2023-08-20T11:20:57;7.25;;;6.00;;
7887;SDS011;3989;48.810;9.208;2023-08-20T11:23:25;7.10;;;6.60;;
7887;SDS011;3989;48.810;9.208;2023-08-20T11:25:52;6.72;;;6.20;;
7887;SDS011;3989;48.810;9.208;2023-08-20T11:28:19;6.15;;;5.75;;
7887;SDS011;3989;48.810;9.208;2023-08-20T11:30:46;7.03;;;6.43;;
7887;SDS011;3989;48.810;9.208;2023-08-20T11:33:13;6.95;;;6.38;;
7887;SDS011;3989;48.810;9.208;2023-08-20T11:35:40;9.20;;;6.50;;
7887;SDS011;3989;48.810;9.208;2023-08-20T11:38:07;7.43;;;6.22;;
7887;SDS011;3989;48.810;9.208;2023-08-20T11:40:37;6.63;;;6.07;;
7887;SDS011;3989;48.810;9.208;2023-08-20T11:43:03;6.55;;;5.95;;
7887;SDS011;3989;48.810;9.208;2023-08-20T11:45:30;5.90;;;5.40;;
7887;SDS011;3989;48.810;9.208;2023-08-20T11:47:57;6.65;;;5.80;;
7887;SDS011;3989;48.810;9.208;2023-08-20T11:50:24;6.07;;;5.68;;
7887;SDS011;3989;48.810;9.208;2023-08-20T11:52:51;6.32;;;5.70;;
7887;SDS011;3989;48.810;9.208;2023-08-20T11:55:21;7.05;;;6.20;;
7887;SDS011;3989;48.810;9.208;2023-08-20T11:57:51;6.05;;;5.53;;
7887;SDS011;3989;48.810;9.208;2023-08-20T12:00:24;6.18;;;5.60;;
7887;SDS011;3989;48.810;9.208;2023-08-20T12:02:52;5.72;;;5.32;;
7887;SDS011;3989;48.810;9.208;2023-08-20T12:05:20;5.68;;;5.28;;
7887;SDS011;3989;48.810;9.208;2023-08-20T12:07:54;5.82;;;5.22;;
7887;SDS011;3989;48.810;9.208;2023-08-20T12:10:22;5.40;;;5.10;;
7887;SDS011;3989;48.810;9.208;2023-08-20T12:12:51;6.07;;;5.55;;
7887;SDS011;3989;48.810;9.208;2023-08-20T12:15:18;6.25;;;5.80;;
7887;SDS011;3989;48.810;9.208;2023-08-20T12:17:54;6.65;;;5.80;;
7887;SDS011;3989;48.810;9.208;2023-08-20T12:20:26;6.05;;;5.63;;
7887;SDS011;3989;48.810;9.208;2023-08-20T12:22:55;5.72;;;5.40;;
7887;SDS011;3989;48.810;9.208;2023-08-20T12:25:22;6.78;;;5.85;;
7887;SDS011;3989;48.810;9.208;2023-08-20T12:27:50;6.28;;;5.68;;
7887;SDS011;3989;48.810;9.208;2023-08-20T12:30:17;5.97;;;5.40;;
7887;SDS011;3989;48.810;9.208;2023-08-20T12:32:44;6.13;;;5.72;;
7887;SDS011;3989;48.810;9.208;2023-08-20T12:35:10;5.88;;;5.45;;
7887;SDS011;3989;48.810;9.208;2023-08-20T12:37:38;5.88;;;5.45;;
7887;SDS011;3989;48.810;9.208;2023-08-20T12:40:05;6.47;;;5.65;;
7887;SDS011;3989;48.810;9.208;2023-08-20T12:42:36;9.45;;;6.50;;
7887;SDS011;3989;48.810;9.208;2023-08-20T12:45:05;6.30;;;5.65;;
7887;SDS011;3989;48.810;9.208;2023-08-20T12:47:32;5.13;;;4.78;;
7887;SDS011;3989;48.810;9.208;2023-08-20T12:49:59;6.10;;;5.60;;
7887;SDS011;3989;48.810;9.208;2023-08-20T12:52:26;5.95;;;5.45;;
7887;SDS011;3989;48.810;9.208;2023-08-20T12:54:52;6.03;;;5.47;;
7887;SDS011;3989;48.810;9.208;2023-08-20T12:57:19;6.32;;;5.93;;
7887;SDS011;3989;48.810;9.208;2023-08-20T12:59:46;6.43;;;5.30;;
7887;SDS011;3989;48.810;9.208;2023-08-20T13:02:13;9.63;;;6.05;;
7887;SDS011;3989;48.810;9.208;2023-08-20T13:04:40;6.82;;;5.43;;
7887;SDS011;3989;48.810;9.208;2023-08-20T13:07:08;5.95;;;5.40;;
7887;SDS011;3989;48.810;9.208;2023-08-20T13:09:35;7.38;;;6.05;;
7887;SDS011;3989;48.810;9.208;2023-08-20T13:12:02;5.70;;;5.30;;
7887;SDS011;3989;48.810;9.208;2023-08-20T13:14:30;5.30;;;5.00;;
7887;SDS011;3989;48.810;9.208;2023-08-20T13:16:58;6.05;;;5.43;;
7887;SDS011;3989;48.810;9.208;2023-08-20T13:19:26;5.65;;;5.20;;
7887;SDS011;3989;48.810;9.208;2023-08-20T13:21:53;5.78;;;5.30;;
7887;SDS011;3989;48.810;9.208;2023-08-20T13:24:20;5.80;;;5.25;;
7887;SDS011;3989;48.810;9.208;2023-08-20T13:26:46;5.28;;;4.88;;
7887;SDS011;3989;48.810;9.208;2023-08-20T13:29:13;5.55;;;5.15;;
7887;SDS011;3989;48.810;9.208;2023-08-20T13:31:40;5.65;;;5.15;;
7887;SDS011;3989;48.810;9.208;2023-08-20T13:34:06;5.60;;;5.25;;
7887;SDS011;3989;48.810;9.208;2023-08-20T13:36:34;5.72;;;5.35;;
7887;SDS011;3989;48.810;9.208;2023-08-20T13:39:01;5.65;;;5.10;;
7887;SDS011;3989;48.810;9.208;2023-08-20T13:41:28;5.43;;;5.13;;
7887;SDS011;3989;48.810;9.208;2023-08-20T13:43:55;5.85;;;5.45;;
7887;SDS011;3989;48.810;9.208;2023-08-20T13:46:21;5.72;;;5.43;;
7887;SDS011;3989;48.810;9.208;2023-08-20T13:48:48;7.93;;;5.60;;
7887;SDS011;3989;48.810;9.208;2023-08-20T13:51:15;6.97;;;5.93;;
7887;SDS011;3989;48.810;9.208;2023-08-20T13:53:43;7.05;;;5.80;;
7887;SDS011;3989;48.810;9.208;2023-08-20T13:56:09;6.60;;;6.00;;
7887;SDS011;3989;48.810;9.208;2023-08-20T13:58:36;6.50;;;5.88;;
7887;SDS011;3989;48.810;9.208;2023-08-20T14:01:03;6.85;;;6.25;;
7887;SDS011;3989;48.810;9.208;2023-08-20T14:03:31;6.28;;;5.72;;
7887;SDS011;3989;48.810;9.208;2023-08-20T14:05:57;6.15;;;5.60;;
7887;SDS011;3989;48.810;9.208;2023-08-20T14:08:24;6.60;;;6.03;;
7887;SDS011;3989;48.810;9.208;2023-08-20T14:10:52;6.85;;;6.25;;
7887;SDS011;3989;48.810;9.208;2023-08-20T14:13:19;6.10;;;5.70;;
7887;SDS011;3989;48.810;9.208;2023-08-20T14:15:45;7.47;;;6.03;;
7887;SDS011;3989;48.810;9.208;2023-08-20T14:18:12;6.00;;;5.43;;
7887;SDS011;3989;48.810;9.208;2023-08-20T14:20:38;6.22;;;5.82;;
7887;SDS011;3989;48.810;9.208;2023-08-20T14:23:05;6.32;;;5.80;;
7887;SDS011;3989;48.810;9.208;2023-08-20T14:25:32;6.38;;;5.88;;
7887;SDS011;3989;48.810;9.208;2023-08-20T14:28:02;6.07;;;5.57;;
7887;SDS011;3989;48.810;9.208;2023-08-20T14:30:35;6.35;;;5.57;;
7887;SDS011;3989;48.810;9.208;2023-08-20T14:33:05;5.70;;;5.20;;
7887;SDS011;3989;48.810;9.208;2023-08-20T14:35:33;5.60;;;5.10;;
7887;SDS011;3989;48.810;9.208;2023-08-20T14:38:00;5.97;;;5.43;;
7887;SDS011;3989;48.810;9.208;2023-08-20T14:40:27;6.22;;;5.72;;
7887;SDS011;3989;48.810;9.208;2023-08-20T14:46:18;6.03;;;5.40;;
7887;SDS011;3989;48.810;9.208;2023-08-20T14:48:45;6.38;;;5.95;;
7887;SDS011;3989;48.810;9.208;2023-08-20T14:51:12;6.65;;;6.05;;
7887;SDS011;3989;48.810;9.208;2023-08-20T14:53:39;5.80;;;5.30;;
7887;SDS011;3989;48.810;9.208;2023-08-20T14:56:06;7.32;;;5.57;;
7887;SDS011;3989;48.810;9.208;2023-08-20T14:58:34;6.43;;;5.82;;
7887;SDS011;3989;48.810;9.208;2023-08-20T15:01:01;6.47;;;5.45;;
7887;SDS011;3989;48.810;9.208;2023-08-20T15:03:30;6.88;;;5.43;;
7887;SDS011;3989;48.810;9.208;2023-08-20T15:05:57;5.63;;;5.22;;
7887;SDS011;3989;48.810;9.208;2023-08-20T15:08:24;8.77;;;4.85;;
7887;SDS011;3989;48.810;9.208;2023-08-20T15:10:55;5.55;;;5.22;;
7887;SDS011;3989;48.810;9.208;2023-08-20T15:13:26;5.32;;;4.93;;
7887;SDS011;3989;48.810;9.208;2023-08-20T15:16:45;4.88;;;4.57;;
7887;SDS011;3989;48.810;9.208;2023-08-20T15:19:23;5.10;;;4.80;;